Erie International Tom Ridge Field
KERI : now visible

Airfield :











YOU CAN JOIN US ON...

 
LOGIN :

Register | Disclaimer

   EN    FR    IT 

 









Legend :    VFR   Marginal VFR   IFR   Intensive IFR   Very Intensive IFR
Visi :
Ceiling :
>= 8 km
>= 3000ft
5 to 8 km
1000 to 3000 ft
1500m to 5 km
500 to 1000 ft
800 to 1500m
200 to 500 ft
< 800m
< 200 ft
Symbols :   Thunderstorms  Fog  Heavy snow  Heavy precipitations  Wind > 20 kt







- Airport Elevation : 733 ft
- IATA code : ERI


KERI - Erie International Tom Ridge Field

CURRENT METAR :
  • 261451Z 29008KT 5SM BR BKN007 BKN050 21/19 A3001 RMK AO2 RAB29E42 SLP159 P0000 60000 T02110189 53001

EXPIRED METARs :
  • 261435Z 23005KT 3SM -RA BR SCT006 BKN049 BKN075 21/18 A3001 RMK AO2 RAB29 P0000 T02060183
  • 261359Z 27008KT 7SM BKN009 OVC012 21/17 A3002 RMK AO2 T02060172
  • 261351Z 26009KT 8SM BKN010 21/18 A3001 RMK AO2 SLP159 T02060178
  • 261335Z 26008KT 9SM BKN009 BKN013 21/17 A3001 RMK AO2 T02060172
  • 261258Z 28009KT 10SM OVC014 22/18 A3001 RMK AO2 T02170178
  • 261219Z 25006KT 10SM BKN016 22/18 A3000 RMK AO2 T02220183
  • 261151Z 21006KT 10SM FEW017 22/19 A2999 RMK AO2 SLP150 T02220189 10222 20194 51012

TAF KERI
Valid from the 26 at 12:00 until the 27 at 12:00 UTC


261139Z 2612/2712 24006KT P6SM BKN050
TEMPO 2612/2615 BKN015
FM261500 27007KT 4SM SHRA OVC015
FM261700 27007KT P6SM VCSH BKN035
FM270200 00000KT P6SM SCT050
KZOB FIR / North America



MET'MAP, your aeronautical weather chart ! - Copyright ORBIFLY December 2007 - Disclaimer

ORBIFLY MET'MAP TEAM :

Programming & Development : Alexandra Zaïnal
Concept & Development : Baudouin d'Aumeries
Co-Development & Prog : Marc-Olivier Méhu
Technical & hardware support : Manuel Goepfert

Contact : metmap@orbifly.com




SOURCES & CREDITS :

   NOAA       Earth
Advisory